createdAt,value
2023-01-09T00:00:48.704Z,6.58
2023-01-09T00:03:15.152Z,6.59
2023-01-09T00:05:41.656Z,6.57
2023-01-09T00:08:08.233Z,6.55
2023-01-09T00:10:34.893Z,6.54
2023-01-09T00:13:01.409Z,6.51
2023-01-09T00:15:27.844Z,6.48
2023-01-09T00:17:54.286Z,6.48
2023-01-09T00:20:20.917Z,6.47
2023-01-09T00:22:47.329Z,6.46
2023-01-09T00:25:13.820Z,6.48
2023-01-09T00:27:40.313Z,6.50
2023-01-09T00:30:07.428Z,6.52
2023-01-09T00:32:33.908Z,6.55
2023-01-09T00:35:00.313Z,6.57
2023-01-09T00:37:26.701Z,6.61
2023-01-09T00:39:53.118Z,6.63
2023-01-09T00:42:22.823Z,6.66
2023-01-09T00:44:53.108Z,6.67
2023-01-09T00:47:27.893Z,6.83
2023-01-09T00:49:58.571Z,6.80
2023-01-09T00:52:25.144Z,6.82
2023-01-09T00:54:51.774Z,6.79
2023-01-09T00:57:18.348Z,6.86
2023-01-09T00:59:44.836Z,6.88
2023-01-09T01:02:11.531Z,6.90
2023-01-09T01:04:56.705Z,6.97
2023-01-09T01:07:38.333Z,7.02
2023-01-09T01:10:08.064Z,7.08
2023-01-09T01:12:34.508Z,7.15
2023-01-09T01:15:01.025Z,7.21
2023-01-09T01:17:27.490Z,7.25
2023-01-09T01:19:54.101Z,7.27
2023-01-09T01:22:20.642Z,7.30
2023-01-09T01:24:47.100Z,7.30
2023-01-09T01:27:14.324Z,7.29
2023-01-09T01:29:40.730Z,7.28
2023-01-09T01:32:07.942Z,7.28
2023-01-09T01:34:34.685Z,7.22
2023-01-09T01:37:01.149Z,7.26
2023-01-09T01:39:27.582Z,7.24
2023-01-09T01:41:54.167Z,7.25
2023-01-09T01:44:58.234Z,7.27
2023-01-09T01:47:42.980Z,7.24
2023-01-09T01:50:16.522Z,7.23
2023-01-09T01:52:48.020Z,7.20
2023-01-09T01:55:15.816Z,7.20
2023-01-09T01:57:47.348Z,7.20
2023-01-09T02:00:14.073Z,7.17
2023-01-09T02:02:40.743Z,7.20
2023-01-09T02:05:07.417Z,7.21
2023-01-09T02:07:34.908Z,7.21
2023-01-09T02:10:01.766Z,7.24
2023-01-09T02:12:28.631Z,7.19
2023-01-09T02:15:00.881Z,7.27
2023-01-09T02:18:04.565Z,7.32
2023-01-09T02:20:50.568Z,7.34
2023-01-09T02:23:33.830Z,7.41
2023-01-09T02:26:28.882Z,7.45
2023-01-09T02:29:17.166Z,7.53
2023-01-09T02:31:56.607Z,7.57
2023-01-09T02:34:55.865Z,7.64
2023-01-09T02:37:22.235Z,7.67
2023-01-09T02:40:08.551Z,7.68
2023-01-09T02:42:37.317Z,7.79
2023-01-09T02:45:04.257Z,7.84
2023-01-09T02:47:30.585Z,7.88
2023-01-09T02:50:00.725Z,7.90
2023-01-09T02:52:48.834Z,8.05
2023-01-09T02:55:36.747Z,8.09
2023-01-09T02:58:24.472Z,8.13
2023-01-09T03:01:24.644Z,8.19
2023-01-09T03:04:00.426Z,8.21
2023-01-09T03:06:45.105Z,8.24
2023-01-09T03:09:20.421Z,8.25
2023-01-09T03:11:51.643Z,8.29
2023-01-09T03:14:21.985Z,8.32
2023-01-09T03:16:53.042Z,8.33
2023-01-09T03:19:24.098Z,8.39
2023-01-09T03:21:52.071Z,8.40
2023-01-09T03:24:18.477Z,8.45
2023-01-09T03:26:45.148Z,8.48
2023-01-09T03:29:11.538Z,8.51
2023-01-09T03:31:38.028Z,8.46
2023-01-09T03:34:04.565Z,8.53
2023-01-09T03:36:31.131Z,8.59
2023-01-09T03:38:57.536Z,8.54
2023-01-09T03:41:24.087Z,8.58
2023-01-09T03:43:50.623Z,8.60
2023-01-09T03:46:17.430Z,8.69
2023-01-09T03:48:43.852Z,8.69
2023-01-09T03:51:10.610Z,8.74
2023-01-09T03:53:37.061Z,8.69
2023-01-09T03:56:03.643Z,8.80
2023-01-09T03:58:30.354Z,8.78
2023-01-09T04:01:03.187Z,8.87
2023-01-09T04:03:29.797Z,8.90
2023-01-09T04:05:56.389Z,8.89
2023-01-09T04:08:22.850Z,8.95
2023-01-09T04:10:51.026Z,8.99
2023-01-09T04:13:18.187Z,9.01
2023-01-09T04:15:44.742Z,8.99
2023-01-09T04:18:11.234Z,9.03
2023-01-09T04:20:37.734Z,9.08
2023-01-09T04:23:04.325Z,9.07
2023-01-09T04:25:30.749Z,9.14
2023-01-09T04:27:57.486Z,9.13
2023-01-09T04:30:24.038Z,9.20
2023-01-09T04:32:51.973Z,9.18
2023-01-09T04:35:19.503Z,9.22
2023-01-09T04:37:45.951Z,9.26
2023-01-09T04:40:12.881Z,9.28
2023-01-09T04:42:40.826Z,9.16
2023-01-09T04:45:09.134Z,9.30
2023-01-09T04:47:35.550Z,9.31
2023-01-09T04:50:02.301Z,9.31
2023-01-09T04:52:28.995Z,9.31
2023-01-09T04:54:55.385Z,9.32
2023-01-09T04:57:21.790Z,9.31
2023-01-09T04:59:48.185Z,9.34
2023-01-09T05:02:14.829Z,9.29
2023-01-09T05:04:41.413Z,9.31
2023-01-09T05:07:07.847Z,9.34
2023-01-09T05:09:34.709Z,9.36
2023-01-09T05:12:01.957Z,9.38
2023-01-09T05:14:28.549Z,9.36
2023-01-09T05:16:55.136Z,9.33
2023-01-09T05:19:21.674Z,9.34
2023-01-09T05:21:48.134Z,9.36
2023-01-09T05:24:14.648Z,9.29
2023-01-09T05:26:41.174Z,9.29
2023-01-09T05:29:07.597Z,9.21
2023-01-09T05:31:34.140Z,9.15
2023-01-09T05:34:00.834Z,9.16
2023-01-09T05:36:28.192Z,9.10
2023-01-09T05:38:54.626Z,9.08
2023-01-09T05:41:23.542Z,9.04
2023-01-09T05:43:50.568Z,8.98
2023-01-09T05:46:17.041Z,8.96
2023-01-09T05:48:44.536Z,8.97
2023-01-09T05:51:11.853Z,8.93
2023-01-09T05:53:38.332Z,8.93
2023-01-09T05:56:05.028Z,8.92
2023-01-09T05:58:31.420Z,8.90
2023-01-09T06:00:58.680Z,8.88
2023-01-09T06:03:25.219Z,8.93
2023-01-09T06:05:51.759Z,8.94
2023-01-09T06:08:18.208Z,8.93
2023-01-09T06:10:45.973Z,8.91
2023-01-09T06:13:12.444Z,8.89
2023-01-09T06:15:39.113Z,8.94
2023-01-09T06:18:05.606Z,8.95
2023-01-09T06:20:32.126Z,8.95
2023-01-09T06:22:58.559Z,8.95
2023-01-09T06:25:26.270Z,8.95
2023-01-09T06:27:52.921Z,8.94
2023-01-09T06:30:20.128Z,8.96
2023-01-09T06:32:49.950Z,8.97
2023-01-09T06:35:20.950Z,8.97
2023-01-09T06:37:48.272Z,8.97
2023-01-09T06:40:15.094Z,8.91
2023-01-09T06:42:45.982Z,8.95
2023-01-09T06:45:13.479Z,8.97
2023-01-09T06:47:40.339Z,8.93
2023-01-09T06:50:09.191Z,8.94
2023-01-09T06:52:36.737Z,8.89
2023-01-09T06:55:03.866Z,8.86
2023-01-09T06:57:30.674Z,8.87
2023-01-09T06:59:57.802Z,8.82
2023-01-09T07:02:24.234Z,8.86
2023-01-09T07:04:50.633Z,8.88
2023-01-09T07:07:18.401Z,8.88
2023-01-09T07:09:44.882Z,8.77
2023-01-09T07:12:11.272Z,8.80
2023-01-09T07:14:37.712Z,8.74
2023-01-09T07:17:04.151Z,8.78
2023-01-09T07:19:30.541Z,8.76
2023-01-09T07:21:56.955Z,8.73
2023-01-09T07:24:23.552Z,8.78
2023-01-09T07:26:50.034Z,8.77
2023-01-09T07:29:16.473Z,8.75
2023-01-09T07:31:43.037Z,8.69
2023-01-09T07:34:09.436Z,8.75
2023-01-09T07:36:35.846Z,8.66
2023-01-09T07:39:02.349Z,8.67
2023-01-09T07:41:28.795Z,8.61
2023-01-09T07:43:57.033Z,8.54
2023-01-09T07:46:23.545Z,8.61
2023-01-09T07:48:49.951Z,8.61
2023-01-09T07:51:16.428Z,8.65
2023-01-09T07:53:42.827Z,8.66
2023-01-09T07:56:09.248Z,8.69
2023-01-09T07:58:35.732Z,8.66
2023-01-09T08:01:02.209Z,8.66
2023-01-09T08:03:28.786Z,8.66
2023-01-09T08:05:55.337Z,8.68
2023-01-09T08:08:22.661Z,8.67
2023-01-09T08:10:49.132Z,8.62
2023-01-09T08:13:15.595Z,8.66
2023-01-09T08:15:42.061Z,8.62
2023-01-09T08:18:08.771Z,8.66
2023-01-09T08:20:35.209Z,8.60
2023-01-09T08:23:01.751Z,8.61
2023-01-09T08:25:28.113Z,8.63
2023-01-09T08:27:54.530Z,8.60
2023-01-09T08:30:21.576Z,8.61
2023-01-09T08:32:50.757Z,8.61
2023-01-09T08:35:17.502Z,8.59
2023-01-09T08:37:45.615Z,8.54
2023-01-09T08:40:13.562Z,8.55
2023-01-09T08:42:59.341Z,8.50
2023-01-09T08:45:44.210Z,8.48
2023-01-09T08:48:10.826Z,8.44
2023-01-09T08:50:37.604Z,8.34
2023-01-09T08:53:04.244Z,8.36
2023-01-09T08:55:30.715Z,8.34
2023-01-09T08:57:57.193Z,8.26
2023-01-09T09:00:24.968Z,8.32
2023-01-09T09:02:58.478Z,8.27
2023-01-09T09:05:26.581Z,8.30
2023-01-09T09:07:54.838Z,8.32
2023-01-09T09:10:23.726Z,8.33
2023-01-09T09:12:53.109Z,8.34
2023-01-09T09:15:24.116Z,8.35
2023-01-09T09:17:59.395Z,8.38
2023-01-09T09:20:29.197Z,8.40
2023-01-09T09:22:55.592Z,8.42
2023-01-09T09:25:22.767Z,8.48
2023-01-09T09:27:49.635Z,8.47
2023-01-09T09:30:18.222Z,8.50
2023-01-09T09:32:45.605Z,8.43
2023-01-09T09:35:12.420Z,8.47
2023-01-09T09:37:39.086Z,8.52
2023-01-09T09:40:17.921Z,8.53
2023-01-09T09:43:26.464Z,8.54
2023-01-09T09:46:02.787Z,8.54
2023-01-09T09:48:44.419Z,8.56
2023-01-09T09:51:22.420Z,8.60
2023-01-09T09:53:53.797Z,8.59
2023-01-09T09:56:23.136Z,8.59
2023-01-09T09:58:53.960Z,8.58
2023-01-09T10:01:33.612Z,8.66
2023-01-09T10:04:04.430Z,8.63
2023-01-09T10:06:34.204Z,8.65
2023-01-09T10:09:25.406Z,8.71
2023-01-09T10:11:54.727Z,8.71
2023-01-09T10:14:24.656Z,8.66
2023-01-09T10:17:03.436Z,8.68
2023-01-09T10:19:33.118Z,8.71
2023-01-09T10:22:47.316Z,8.73
2023-01-09T10:25:47.215Z,8.66
2023-01-09T10:28:31.834Z,8.64
2023-01-09T10:31:24.627Z,8.65
2023-01-09T10:34:14.716Z,8.65
2023-01-09T10:36:47.026Z,8.60
2023-01-09T10:39:34.507Z,8.60
2023-01-09T10:42:22.802Z,8.57
2023-01-09T10:44:56.207Z,8.52
2023-01-09T10:47:35.213Z,8.53
2023-01-09T10:50:18.062Z,8.51
2023-01-09T10:52:45.632Z,8.50
2023-01-09T10:55:39.690Z,8.53
2023-01-09T10:58:14.612Z,8.54
2023-01-09T11:00:42.112Z,8.52
2023-01-09T11:03:21.161Z,8.55
2023-01-09T11:05:54.373Z,8.51
2023-01-09T11:08:35.673Z,8.51
2023-01-09T11:11:03.098Z,8.48
2023-01-09T11:13:34.374Z,8.50
2023-01-09T11:16:23.509Z,8.58
2023-01-09T11:18:54.291Z,8.69
2023-01-09T11:21:34.054Z,8.79
2023-01-09T11:24:18.890Z,8.95
2023-01-09T11:26:47.043Z,9.00
2023-01-09T11:29:19.081Z,9.03
2023-01-09T11:31:58.211Z,9.16
2023-01-09T11:34:31.468Z,9.27
2023-01-09T11:37:10.568Z,9.37
2023-01-09T11:39:41.225Z,9.48
2023-01-09T11:42:20.199Z,9.63
2023-01-09T11:44:46.736Z,9.80
2023-01-09T11:47:39.129Z,9.95
2023-01-09T11:50:20.676Z,10.05
2023-01-09T11:53:07.258Z,10.05
2023-01-09T11:55:41.823Z,10.15
2023-01-09T11:58:17.803Z,10.19
2023-01-09T12:00:50.693Z,10.24
2023-01-09T12:03:51.186Z,10.29
2023-01-09T12:06:27.559Z,10.28
2023-01-09T12:09:04.831Z,10.15
2023-01-09T12:12:03.044Z,10.19
2023-01-09T12:14:50.583Z,10.14
2023-01-09T12:17:29.797Z,10.09
2023-01-09T12:20:20.817Z,10.06
2023-01-09T12:23:00.975Z,10.00
2023-01-09T12:25:56.790Z,9.99
2023-01-09T12:28:38.466Z,9.97
2023-01-09T12:31:07.787Z,9.96
2023-01-09T12:33:46.818Z,9.95
2023-01-09T12:36:25.648Z,9.96
2023-01-09T12:38:51.974Z,9.93
2023-01-09T12:41:53.412Z,9.94
2023-01-09T12:44:48.181Z,9.99
2023-01-09T12:47:34.843Z,9.97
2023-01-09T12:50:19.820Z,9.94
2023-01-09T12:53:07.669Z,9.84
2023-01-09T12:55:39.698Z,9.83
2023-01-09T12:58:41.336Z,9.78
2023-01-09T13:01:15.155Z,9.71
2023-01-09T13:03:47.363Z,9.69
2023-01-09T13:06:18.025Z,9.68
2023-01-09T13:08:53.242Z,9.61
2023-01-09T13:11:31.823Z,9.66
2023-01-09T13:14:22.035Z,9.66
2023-01-09T13:16:52.416Z,9.63
2023-01-09T13:19:36.818Z,9.68
2023-01-09T13:22:05.723Z,9.64
2023-01-09T13:24:53.339Z,9.67
2023-01-09T13:27:22.954Z,9.64
2023-01-09T13:30:06.615Z,9.71
2023-01-09T13:33:11.924Z,9.75
2023-01-09T13:35:53.744Z,9.76
2023-01-09T13:38:23.737Z,9.73
2023-01-09T13:41:28.960Z,9.78
2023-01-09T13:43:59.582Z,9.70
2023-01-09T13:46:43.275Z,9.72
2023-01-09T13:49:43.803Z,9.70
2023-01-09T13:52:39.254Z,9.69
2023-01-09T13:55:11.952Z,9.67
2023-01-09T13:57:43.255Z,9.64
2023-01-09T14:00:12.698Z,9.66
2023-01-09T14:02:39.093Z,9.65
2023-01-09T14:05:11.304Z,9.65
2023-01-09T14:07:40.348Z,9.66
2023-01-09T14:10:25.412Z,9.64
2023-01-09T14:12:55.708Z,9.66
2023-01-09T14:15:22.014Z,9.79
2023-01-09T14:17:49.771Z,9.70
2023-01-09T14:20:34.570Z,9.75
2023-01-09T14:25:48.556Z,9.73
2023-01-09T14:28:28.950Z,9.80
2023-01-09T14:30:55.374Z,9.77
2023-01-09T14:33:25.432Z,9.76
2023-01-09T14:35:56.568Z,9.77
2023-01-09T14:38:34.482Z,9.74
2023-01-09T14:41:07.545Z,9.70
2023-01-09T14:43:53.421Z,9.71
2023-01-09T14:46:24.157Z,9.61
2023-01-09T14:49:19.148Z,9.64
2023-01-09T14:51:51.695Z,9.54
2023-01-09T14:54:29.160Z,9.56
2023-01-09T14:57:05.744Z,9.50
2023-01-09T14:59:38.686Z,9.52
2023-01-09T15:02:11.157Z,9.36
2023-01-09T15:04:41.967Z,9.45
2023-01-09T15:07:32.401Z,9.44
2023-01-09T15:10:05.116Z,9.35
2023-01-09T15:12:40.146Z,9.30
2023-01-09T15:15:13.135Z,9.21
2023-01-09T15:17:43.087Z,9.12
2023-01-09T15:20:20.703Z,9.06
2023-01-09T15:22:54.507Z,8.90
2023-01-09T15:25:39.016Z,8.93
2023-01-09T15:28:28.924Z,8.97
2023-01-09T15:31:02.942Z,8.79
2023-01-09T15:33:29.897Z,8.72
2023-01-09T15:36:02.059Z,8.57
2023-01-09T15:38:34.416Z,8.64
2023-01-09T15:41:06.806Z,8.63
2023-01-09T15:43:34.808Z,8.64
2023-01-09T15:46:01.573Z,8.61
2023-01-09T15:48:32.370Z,8.62
2023-01-09T15:51:02.489Z,8.61
2023-01-09T15:53:29.758Z,8.55
2023-01-09T15:56:30.268Z,8.67
2023-01-09T15:58:58.489Z,8.65
2023-01-09T16:01:30.347Z,8.68
2023-01-09T16:04:16.385Z,8.70
2023-01-09T16:06:51.034Z,8.72
2023-01-09T16:09:21.831Z,8.72
2023-01-09T16:11:55.384Z,8.75
2023-01-09T16:14:38.685Z,8.79
2023-01-09T16:17:08.800Z,8.79
2023-01-09T16:19:41.409Z,8.81
2023-01-09T16:22:27.833Z,8.86
2023-01-09T16:24:57.400Z,8.85
2023-01-09T16:27:33.327Z,8.87
2023-01-09T16:30:06.692Z,8.88
2023-01-09T16:32:35.733Z,8.87
2023-01-09T16:35:06.199Z,8.87
2023-01-09T16:37:33.754Z,8.89
2023-01-09T16:40:18.524Z,8.93
2023-01-09T16:43:01.286Z,8.92
2023-01-09T16:45:32.316Z,8.94
2023-01-09T16:47:59.455Z,8.95
2023-01-09T16:50:26.447Z,8.97
2023-01-09T16:52:52.968Z,8.96
2023-01-09T16:55:19.510Z,9.01
2023-01-09T16:57:46.021Z,9.03
2023-01-09T17:00:18.434Z,9.04
2023-01-09T17:02:45.274Z,9.06
2023-01-09T17:05:11.864Z,9.07
2023-01-09T17:07:38.285Z,9.09
2023-01-09T17:10:06.097Z,9.11
2023-01-09T17:12:32.544Z,9.12
2023-01-09T17:15:00.866Z,9.13
2023-01-09T17:17:27.488Z,9.14
2023-01-09T17:19:53.915Z,9.14
2023-01-09T17:22:20.381Z,9.16
2023-01-09T17:25:08.742Z,9.15
2023-01-09T17:27:56.197Z,9.16
2023-01-09T17:30:22.898Z,9.09
2023-01-09T17:32:49.481Z,9.13
2023-01-09T17:35:16.296Z,9.14
2023-01-09T17:37:43.113Z,9.15
2023-01-09T17:40:20.816Z,9.17
2023-01-09T17:42:47.268Z,9.14
2023-01-09T17:45:14.246Z,9.14
2023-01-09T17:47:40.926Z,9.13
2023-01-09T17:50:15.897Z,9.10
2023-01-09T17:52:42.410Z,9.07
2023-01-09T17:55:09.318Z,9.06
2023-01-09T17:57:35.717Z,8.99
2023-01-09T18:00:02.472Z,8.96
2023-01-09T18:02:28.923Z,8.98
2023-01-09T18:04:55.388Z,8.98
2023-01-09T18:07:21.891Z,8.98
2023-01-09T18:09:48.549Z,8.95
2023-01-09T18:12:14.974Z,8.97
2023-01-09T18:14:42.150Z,8.95
2023-01-09T18:17:11.988Z,8.98
2023-01-09T18:19:38.521Z,8.96
2023-01-09T18:22:04.979Z,8.96
2023-01-09T18:24:31.368Z,8.93
2023-01-09T18:26:57.767Z,8.91
2023-01-09T18:29:24.283Z,8.89
2023-01-09T18:31:51.685Z,8.87
2023-01-09T18:34:18.131Z,8.88
2023-01-09T18:36:44.636Z,8.86
2023-01-09T18:39:12.102Z,8.80
2023-01-09T18:41:38.484Z,8.81
2023-01-09T18:44:05.032Z,8.78
2023-01-09T18:46:32.311Z,8.73
2023-01-09T18:49:01.133Z,8.75
2023-01-09T18:51:28.689Z,8.71
2023-01-09T18:53:55.799Z,8.71
2023-01-09T18:56:23.287Z,8.70
2023-01-09T18:58:49.801Z,8.70
2023-01-09T19:01:16.438Z,8.69
2023-01-09T19:03:43.289Z,8.68
2023-01-09T19:06:10.630Z,8.67
2023-01-09T19:08:37.140Z,8.67
2023-01-09T19:11:04.352Z,8.67
2023-01-09T19:13:33.152Z,8.65
2023-01-09T19:16:00.847Z,8.63
2023-01-09T19:18:29.320Z,8.61
2023-01-09T19:20:55.817Z,8.60
2023-01-09T19:23:25.638Z,8.63
2023-01-09T19:25:53.788Z,8.62
2023-01-09T19:28:21.039Z,8.63
2023-01-09T19:30:47.455Z,8.66
2023-01-09T19:33:13.877Z,8.64
2023-01-09T19:35:40.385Z,8.63
2023-01-09T19:38:06.804Z,8.68
2023-01-09T19:40:33.222Z,8.71
2023-01-09T19:42:59.645Z,8.69
2023-01-09T19:45:26.039Z,8.74
2023-01-09T19:47:52.528Z,8.74
2023-01-09T19:50:19.103Z,8.76
2023-01-09T19:52:45.733Z,8.75
2023-01-09T19:55:14.144Z,8.75
2023-01-09T19:57:44.185Z,8.77
2023-01-09T20:00:12.622Z,8.79
2023-01-09T20:02:39.553Z,8.79
2023-01-09T20:05:07.295Z,8.81
2023-01-09T20:07:34.847Z,8.81
2023-01-09T20:10:01.511Z,8.78
2023-01-09T20:12:27.914Z,8.81
2023-01-09T20:14:54.365Z,8.81
2023-01-09T20:17:20.845Z,8.82
2023-01-09T20:19:47.232Z,8.83
2023-01-09T20:22:13.782Z,8.83
2023-01-09T20:24:40.364Z,8.79
2023-01-09T20:27:07.209Z,8.83
2023-01-09T20:29:33.802Z,8.82
2023-01-09T20:32:01.248Z,8.80
2023-01-09T20:34:27.716Z,8.84
2023-01-09T20:36:54.676Z,8.79
2023-01-09T20:39:21.555Z,8.81
2023-01-09T20:41:48.379Z,8.88
2023-01-09T20:44:15.689Z,8.88
2023-01-09T20:46:47.362Z,8.90
2023-01-09T20:49:15.975Z,8.88
2023-01-09T20:51:48.245Z,8.94
2023-01-09T20:54:16.313Z,8.93
2023-01-09T20:56:44.145Z,8.96
2023-01-09T20:59:16.942Z,8.95
2023-01-09T21:01:43.651Z,8.92
2023-01-09T21:04:10.219Z,8.98
2023-01-09T21:06:36.810Z,8.99
2023-01-09T21:09:05.026Z,8.95
2023-01-09T21:11:33.558Z,8.97
2023-01-09T21:14:00.193Z,8.96
2023-01-09T21:16:26.885Z,8.89
2023-01-09T21:18:54.750Z,8.95
2023-01-09T21:21:24.489Z,8.93
2023-01-09T21:23:53.442Z,8.97
2023-01-09T21:26:24.775Z,8.95
2023-01-09T21:28:55.159Z,8.95
2023-01-09T21:31:29.847Z,8.96
2023-01-09T21:33:56.522Z,8.93
2023-01-09T21:36:23.283Z,8.97
2023-01-09T21:38:52.097Z,8.95
2023-01-09T21:41:38.255Z,8.96
2023-01-09T21:44:24.738Z,8.96
2023-01-09T21:46:55.844Z,8.96
2023-01-09T21:49:25.404Z,8.96
2023-01-09T21:51:55.704Z,9.00
2023-01-09T21:54:23.277Z,9.09
2023-01-09T21:56:50.774Z,9.02
2023-01-09T21:59:17.363Z,8.92
2023-01-09T22:01:44.156Z,9.01
2023-01-09T22:04:14.829Z,9.02
2023-01-09T22:06:41.361Z,9.03
2023-01-09T22:09:07.847Z,8.97
2023-01-09T22:11:34.306Z,8.96
2023-01-09T22:14:00.731Z,8.97
2023-01-09T22:16:27.923Z,9.04
2023-01-09T22:18:55.986Z,9.04
2023-01-09T22:21:23.541Z,9.03
2023-01-09T22:23:50.510Z,9.03
2023-01-09T22:26:18.553Z,9.03
2023-01-09T22:28:46.021Z,9.02
2023-01-09T22:31:16.896Z,8.98
2023-01-09T22:33:43.701Z,8.96
2023-01-09T22:36:12.065Z,9.00
2023-01-09T22:38:38.491Z,8.96
2023-01-09T22:41:05.280Z,8.93
2023-01-09T22:43:32.255Z,8.96
2023-01-09T22:46:03.457Z,8.89
2023-01-09T22:48:34.621Z,8.88
2023-01-09T22:51:02.760Z,8.90
2023-01-09T22:53:30.724Z,8.91
2023-01-09T22:55:59.239Z,8.89
2023-01-09T22:58:27.265Z,8.90
2023-01-09T23:00:54.482Z,8.89
2023-01-09T23:03:21.004Z,8.88
2023-01-09T23:05:47.428Z,8.88
2023-01-09T23:08:14.487Z,8.89
2023-01-09T23:10:42.221Z,8.88
2023-01-09T23:13:08.667Z,8.87
2023-01-09T23:15:35.229Z,8.87
2023-01-09T23:18:01.643Z,8.86
2023-01-09T23:20:28.025Z,8.87
2023-01-09T23:22:54.437Z,8.86
2023-01-09T23:25:20.939Z,8.87
2023-01-09T23:27:47.385Z,8.88
2023-01-09T23:30:14.053Z,8.83
2023-01-09T23:32:40.489Z,8.81
2023-01-09T23:35:07.265Z,8.85
2023-01-09T23:37:34.102Z,8.86
2023-01-09T23:40:00.539Z,8.84
2023-01-09T23:42:45.438Z,8.81
2023-01-09T23:45:11.891Z,8.83
2023-01-09T23:47:38.364Z,8.81
2023-01-09T23:50:06.916Z,8.82
2023-01-09T23:52:33.315Z,8.78
2023-01-09T23:54:59.777Z,8.80
2023-01-09T23:57:26.187Z,8.82
2023-01-09T23:59:52.564Z,8.83
